Time;durP1;ratioP1;P1;durP2;ratioP2;P2;SDS_P1;SDS_P2;PMS_P1;PMS_P2;Temp;Humidity;BMP_temperature;BMP_pressure;BME280_temperature;BME280_humidity;BME280_pressure;Samples;Min_cycle;Max_cycle;Signal;HPM_P1;HPM_P2
2023/08/04 00:01:38;;;;;;;0.40;0.40;;;;;;;17.10;78.40;98233.22;5139014;27;40898;-83
2023/08/04 00:04:05;;;;;;;0.30;0.20;;;;;;;17.11;78.10;98236.72;5138811;27;40023;-83
2023/08/04 00:06:33;;;;;;;0.30;0.30;;;;;;;17.21;77.87;98253.56;5175002;27;41711;-82
2023/08/04 00:09:00;;;;;;;0.30;0.30;;;;;;;17.22;78.31;98252.56;5138651;27;41737;-83
2023/08/04 00:11:28;;;;;;;0.40;0.40;;;;;;;16.98;77.71;98209.50;5120946;27;41149;-83
2023/08/04 00:13:57;;;;;;;0.70;0.47;;;;;;;17.21;78.00;98246.38;5156842;27;41211;-83
2023/08/04 00:16:25;;;;;;;0.33;0.33;;;;;;;17.16;77.82;98231.78;5158608;27;41179;-83
2023/08/04 00:18:52;;;;;;;0.43;0.40;;;;;;;17.30;77.85;98255.34;5158238;27;41874;-83
2023/08/04 00:21:20;;;;;;;0.30;0.30;;;;;;;17.28;77.81;98238.59;5158960;27;43229;-83
2023/08/04 00:23:47;;;;;;;0.77;0.60;;;;;;;17.41;77.75;98256.94;5140796;27;40774;-83
2023/08/04 00:26:15;;;;;;;0.20;0.20;;;;;;;17.47;77.41;98251.78;5158491;27;40768;-83
2023/08/04 00:28:42;;;;;;;0.50;0.30;;;;;;;17.52;77.61;98265.56;5157957;27;41741;-83
2023/08/04 00:31:14;;;;;;;0.70;0.60;;;;;;;17.55;77.47;98254.56;5158236;27;41094;-83
2023/08/04 00:33:41;;;;;;;0.40;0.40;;;;;;;17.62;77.54;98267.31;5176558;27;40923;-82
2023/08/04 00:36:09;;;;;;;0.30;0.30;;;;;;;17.53;77.08;98256.53;5158576;27;41769;-82
2023/08/04 00:38:36;;;;;;;0.93;0.40;;;;;;;17.64;77.02;98260.84;5158190;27;42054;-83
2023/08/04 00:41:04;;;;;;;0.33;0.33;;;;;;;17.61;77.00;98253.09;5141757;27;41562;-83
2023/08/04 00:43:31;;;;;;;0.40;0.40;;;;;;;17.59;77.25;98249.72;5141946;27;39813;-82
2023/08/04 00:45:59;;;;;;;0.40;0.40;;;;;;;17.74;77.78;98269.63;5142210;27;41678;-83
2023/08/04 00:48:28;;;;;;;0.40;0.40;;;;;;;17.66;77.58;98258.03;5141807;27;41961;-83
2023/08/04 00:50:56;;;;;;;0.50;0.50;;;;;;;17.75;77.26;98271.31;5141942;27;41461;-83
2023/08/04 00:53:23;;;;;;;0.30;0.30;;;;;;;17.63;77.17;98250.25;5176811;27;41574;-83
2023/08/04 00:55:51;;;;;;;0.50;0.43;;;;;;;17.57;77.21;98252.53;5177691;27;41751;-83
2023/08/04 00:58:19;;;;;;;0.30;0.30;;;;;;;17.52;77.43;98249.50;5141854;27;41686;-83
2023/08/04 01:00:46;;;;;;;0.20;0.20;;;;;;;17.56;77.54;98266.09;5141927;27;43069;-83
2023/08/04 01:03:14;;;;;;;0.50;0.50;;;;;;;17.41;78.02;98251.59;5141594;27;40579;-83
2023/08/04 01:05:50;;;;;;;0.50;0.50;;;;;;;17.43;77.87;98258.44;5159132;27;40398;-83
2023/08/04 01:08:22;;;;;;;0.60;0.40;;;;;;;17.36;78.10;98249.34;5141365;27;41798;-83
2023/08/04 01:10:56;;;;;;;0.37;0.37;;;;;;;17.24;78.51;98234.53;5139656;27;42146;-84
2023/08/04 01:13:25;;;;;;;0.40;0.40;;;;;;;17.46;78.48;98265.31;5140707;27;40312;-83
2023/08/04 01:15:54;;;;;;;1.47;0.40;;;;;;;17.45;78.14;98253.78;5140384;27;40994;-83
2023/08/04 01:18:22;;;;;;;0.50;0.50;;;;;;;17.39;78.11;98241.03;5140270;27;41930;-84
2023/08/04 01:20:51;;;;;;;0.40;0.40;;;;;;;17.43;78.39;98239.69;5140546;27;42221;-84
2023/08/04 01:23:21;;;;;;;0.30;0.30;;;;;;;17.35;78.19;98226.25;5140402;27;39394;-83
2023/08/04 01:25:49;;;;;;;0.30;0.30;;;;;;;17.43;78.36;98239.69;5139548;27;40987;-84
2023/08/04 01:28:18;;;;;;;0.43;0.43;;;;;;;17.48;78.36;98253.47;5139965;27;41587;-84
2023/08/04 01:30:48;;;;;;;0.30;0.30;;;;;;;17.51;78.52;98255.84;5139860;27;41628;-84
2023/08/04 01:33:16;;;;;;;0.40;0.40;;;;;;;17.33;78.71;98225.56;5157293;27;41004;-83
2023/08/04 01:35:44;;;;;;;0.30;0.30;;;;;;;17.41;78.29;98235.53;5157494;27;40511;-84
2023/08/04 01:38:12;;;;;;;0.43;0.43;;;;;;;17.41;78.46;98236.38;5139751;27;41785;-83
2023/08/04 01:40:42;;;;;;;0.47;0.47;;;;;;;17.51;77.84;98253.19;5140446;27;42072;-83
2023/08/04 01:43:10;;;;;;;0.70;0.50;;;;;;;17.39;77.69;98233.00;5157880;27;39821;-84
2023/08/04 01:45:37;;;;;;;0.30;0.30;;;;;;;17.41;77.76;98240.88;5141168;27;41897;-83
2023/08/04 01:48:05;;;;;;;0.30;0.30;;;;;;;17.46;77.74;98257.28;5140599;27;41619;-84
2023/08/04 01:50:33;;;;;;;0.30;0.30;;;;;;;17.37;77.61;98244.84;5140993;27;42194;-84
2023/08/04 01:53:01;;;;;;;0.30;0.30;;;;;;;17.34;78.35;98239.78;5140838;27;39621;-83
2023/08/04 01:55:28;;;;;;;0.33;0.30;;;;;;;17.33;78.17;98244.28;5157961;27;41711;-83
2023/08/04 01:57:57;;;;;;;0.37;0.37;;;;;;;17.28;78.25;98235.91;5139841;27;43371;-83
2023/08/04 02:00:25;;;;;;;0.40;0.40;;;;;;;17.31;78.45;98232.91;5138775;27;41501;-83
2023/08/04 02:02:52;;;;;;;0.50;0.50;;;;;;;17.30;78.16;98247.31;5156688;27;39754;-83
2023/08/04 02:05:20;;;;;;;0.77;0.40;;;;;;;17.38;78.16;98268.78;5139444;27;40851;-83
2023/08/04 02:07:47;;;;;;;0.20;0.20;;;;;;;17.30;78.35;98265.19;5139021;27;42025;-83
2023/08/04 02:10:15;;;;;;;0.50;0.50;;;;;;;17.36;78.03;98276.13;5139231;27;41410;-84
2023/08/04 02:12:43;;;;;;;0.50;0.50;;;;;;;17.21;78.42;98257.06;5157116;27;41047;-83
2023/08/04 02:15:12;;;;;;;0.30;0.30;;;;;;;17.23;78.15;98262.28;5157098;27;42007;-84
2023/08/04 02:17:41;;;;;;;0.40;0.40;;;;;;;17.21;78.51;98265.09;5139654;27;41645;-83
2023/08/04 02:20:09;;;;;;;0.50;0.40;;;;;;;17.28;78.40;98268.03;5139594;27;41317;-83
2023/08/04 02:22:37;;;;;;;0.30;0.30;;;;;;;17.27;78.89;98279.72;5139416;27;39978;-83
2023/08/04 02:25:06;;;;;;;0.73;0.47;;;;;;;17.24;79.06;98274.66;5139555;27;40930;-83
2023/08/04 02:27:33;;;;;;;0.30;0.30;;;;;;;17.13;78.79;98269.53;5139126;27;41526;-83
2023/08/04 02:30:01;;;;;;;0.77;0.40;;;;;;;17.16;79.24;98277.25;5156766;27;42330;-83
2023/08/04 02:32:32;;;;;;;0.50;0.40;;;;;;;17.08;79.48;98271.81;5139181;27;40043;-83
2023/08/04 02:35:00;;;;;;;1.50;0.90;;;;;;;17.11;79.96;98277.69;5139555;27;40909;-83
2023/08/04 02:37:30;;;;;;;0.40;0.40;;;;;;;17.01;80.01;98260.03;5137946;27;42058;-82
2023/08/04 02:39:58;;;;;;;0.40;0.40;;;;;;;17.21;80.48;98278.47;5157004;27;42378;-83
2023/08/04 02:42:27;;;;;;;0.40;0.40;;;;;;;17.16;80.00;98263.88;5139984;27;39984;-83
2023/08/04 02:44:55;;;;;;;0.70;0.40;;;;;;;17.22;80.24;98273.97;5140229;27;40635;-83
2023/08/04 02:47:23;;;;;;;0.50;0.50;;;;;;;17.22;80.08;98268.63;5157481;27;41770;-83
2023/08/04 02:49:53;;;;;;;0.47;0.47;;;;;;;17.04;80.16;98227.66;5157516;27;41211;-83
2023/08/04 02:52:20;;;;;;;0.47;0.47;;;;;;;17.36;79.85;98276.13;5157215;27;40743;-83
2023/08/04 02:54:48;;;;;;;0.40;0.40;;;;;;;17.26;80.23;98259.31;5157919;27;41808;-83
2023/08/04 02:57:15;;;;;;;1.40;0.50;;;;;;;17.39;80.10;98272.31;5156608;27;42862;-82
2023/08/04 02:59:43;;;;;;;0.43;0.43;;;;;;;17.39;80.15;98278.50;5157333;27;41274;-83
2023/08/04 03:02:10;;;;;;;0.43;0.43;;;;;;;17.50;80.24;98280.94;5139841;27;41033;-83
2023/08/04 03:04:39;;;;;;;0.60;0.60;;;;;;;17.52;79.85;98270.94;5140022;27;41781;-83
2023/08/04 03:07:08;;;;;;;0.50;0.40;;;;;;;17.53;79.86;98274.44;5139826;27;41863;-83
2023/08/04 03:09:35;;;;;;;0.50;0.50;;;;;;;17.42;79.96;98270.16;5138542;27;41040;-83
2023/08/04 03:12:03;;;;;;;0.40;0.40;;;;;;;17.45;79.84;98275.19;5138025;27;39926;-83
2023/08/04 03:14:31;;;;;;;0.50;0.50;;;;;;;17.56;79.63;98288.34;5139010;27;41180;-83
2023/08/04 03:16:59;;;;;;;0.33;0.30;;;;;;;17.47;79.64;98265.19;5155945;27;42800;-84
2023/08/04 03:19:26;;;;;;;0.53;0.53;;;;;;;17.49;79.51;98267.72;5155804;27;42699;-83
2023/08/04 03:21:54;;;;;;;0.50;0.50;;;;;;;17.59;79.33;98296.06;5138278;27;40931;-82
2023/08/04 03:24:23;;;;;;;0.60;0.60;;;;;;;17.53;79.84;98277.13;5155938;27;42730;-83
2023/08/04 03:26:51;;;;;;;0.67;0.67;;;;;;;17.64;79.69;98305.53;5137812;27;42153;-83
2023/08/04 03:29:18;;;;;;;0.30;0.30;;;;;;;17.54;79.94;98289.53;5155681;27;41201;-82
2023/08/04 03:31:46;;;;;;;0.50;0.40;;;;;;;17.56;79.73;98293.69;5155706;27;40111;-83
2023/08/04 03:34:13;;;;;;;0.50;0.50;;;;;;;17.58;79.61;98288.19;5138396;27;40899;-82
2023/08/04 03:36:41;;;;;;;0.50;0.50;;;;;;;17.69;79.66;98308.56;5138189;27;42964;-83
2023/08/04 03:39:09;;;;;;;0.40;0.40;;;;;;;17.70;79.22;98304.91;5155548;27;42423;-82
2023/08/04 03:41:38;;;;;;;0.53;0.53;;;;;;;17.74;79.34;98311.63;5156790;27;39947;-82
2023/08/04 03:44:05;;;;;;;0.97;0.40;;;;;;;17.73;79.34;98308.13;5156687;27;40519;-82
2023/08/04 03:46:33;;;;;;;0.70;0.50;;;;;;;17.71;78.94;98301.22;5140102;27;43083;-83
2023/08/04 03:49:01;;;;;;;0.30;0.30;;;;;;;17.68;78.78;98288.16;5141009;27;41089;-83
2023/08/04 03:51:28;;;;;;;0.40;0.40;;;;;;;17.73;78.64;98304.59;5178039;27;40863;-83
2023/08/04 03:53:56;;;;;;;0.37;0.37;;;;;;;17.84;78.60;98312.38;5142918;27;40746;-83
2023/08/04 03:56:24;;;;;;;0.30;0.30;;;;;;;17.87;78.40;98312.94;5159647;27;41921;-84
2023/08/04 03:58:53;;;;;;;0.50;0.50;;;;;;;17.89;78.40;98315.47;5159667;27;41153;-83
2023/08/04 04:01:21;;;;;;;0.50;0.50;;;;;;;17.91;78.60;98313.47;5160070;27;39594;-84
2023/08/04 04:03:48;;;;;;;0.60;0.60;;;;;;;17.82;78.89;98309.03;5178621;27;41783;-84
2023/08/04 04:06:16;;;;;;;1.23;0.50;;;;;;;17.85;79.21;98314.06;5142535;27;41902;-84
2023/08/04 04:08:44;;;;;;;0.40;0.40;;;;;;;17.82;79.11;98304.50;5142041;27;42447;-83
2023/08/04 04:11:12;;;;;;;0.57;0.50;;;;;;;17.91;79.03;98319.66;5140259;27;41364;-84
2023/08/04 04:13:40;;;;;;;0.50;0.50;;;;;;;17.87;79.06;98309.41;5141233;27;40692;-84
2023/08/04 04:16:09;;;;;;;0.57;0.57;;;;;;;17.87;79.05;98306.72;5158439;27;41777;-84
2023/08/04 04:18:37;;;;;;;0.50;0.50;;;;;;;17.72;79.03;98278.81;5141071;27;42840;-84
2023/08/04 04:21:04;;;;;;;0.60;0.40;;;;;;;18.02;79.10;98325.78;5158655;27;39897;-84
2023/08/04 04:23:32;;;;;;;0.50;0.40;;;;;;;18.03;78.87;98327.47;5158218;27;43740;-84
2023/08/04 04:26:00;;;;;;;0.63;0.50;;;;;;;17.95;78.77;98310.31;5140843;27;42867;-84
2023/08/04 04:28:27;;;;;;;1.10;0.50;;;;;;;17.98;78.71;98309.16;5157901;27;41969;-83
2023/08/04 04:31:02;;;;;;;0.40;0.40;;;;;;;18.09;78.77;98327.66;5158635;27;41173;-83
2023/08/04 04:33:31;;;;;;;0.50;0.50;;;;;;;18.12;78.60;98331.88;5158533;27;41703;-84
2023/08/04 04:35:59;;;;;;;0.63;0.60;;;;;;;18.08;78.69;98317.94;5158363;27;42857;-84
2023/08/04 04:38:28;;;;;;;1.20;0.60;;;;;;;18.06;78.63;98311.88;5157977;27;42261;-85
2023/08/04 04:40:56;;;;;;;0.40;0.40;;;;;;;18.11;78.53;98317.63;5158975;27;39996;-83
2023/08/04 04:43:23;;;;;;;0.40;0.40;;;;;;;18.12;78.47;98308.59;5159348;27;41965;-83
2023/08/04 04:45:51;;;;;;;0.93;0.87;;;;;;;18.16;78.12;98318.03;5141793;27;41992;-84
2023/08/04 04:48:20;;;;;;;0.50;0.50;;;;;;;18.28;78.13;98332.00;5141768;27;41507;-83
2023/08/04 04:50:51;;;;;;;0.57;0.57;;;;;;;18.31;78.53;98331.66;5159458;27;41132;-84
2023/08/04 04:53:19;;;;;;;0.50;0.50;;;;;;;18.24;78.23;98318.06;5142449;27;40622;-83
2023/08/04 04:55:46;;;;;;;0.77;0.77;;;;;;;18.37;78.37;98341.78;5159009;27;41485;-84
2023/08/04 04:58:14;;;;;;;1.00;0.60;;;;;;;18.33;78.15;98339.56;5141561;27;41230;-84
2023/08/04 05:00:42;;;;;;;0.50;0.50;;;;;;;18.42;78.36;98354.72;5158001;27;39552;-84
2023/08/04 05:03:10;;;;;;;0.43;0.43;;;;;;;18.36;78.18;98345.44;5159042;27;41813;-84
2023/08/04 05:05:38;;;;;;;0.90;0.90;;;;;;;18.38;78.36;98338.09;5141968;27;42770;-84
2023/08/04 05:08:08;;;;;;;0.83;0.83;;;;;;;18.52;78.05;98355.44;5141676;27;42343;-83
2023/08/04 05:10:35;;;;;;;0.53;0.53;;;;;;;18.37;77.99;98325.69;5157087;27;39853;-84
2023/08/04 05:13:03;;;;;;;0.53;0.53;;;;;;;18.48;77.96;98338.00;5140388;27;40766;-84
2023/08/04 05:15:30;;;;;;;0.63;0.63;;;;;;;18.52;78.18;98350.09;5140513;27;42755;-83
2023/08/04 05:17:58;;;;;;;0.70;0.70;;;;;;;18.49;78.19;98342.34;5140011;27;41453;-84
2023/08/04 05:20:25;;;;;;;0.77;0.47;;;;;;;18.57;78.12;98355.78;5140373;27;39783;-83
2023/08/04 05:22:53;;;;;;;1.03;0.73;;;;;;;18.49;78.61;98350.41;5140167;27;40568;-84
2023/08/04 05:25:22;;;;;;;0.63;0.63;;;;;;;18.56;79.42;98367.53;5157313;27;41825;-84
2023/08/04 05:27:50;;;;;;;0.40;0.40;;;;;;;18.41;79.22;98345.84;5140085;27;41526;-84
2023/08/04 05:30:17;;;;;;;0.80;0.77;;;;;;;18.48;79.53;98364.81;5140446;27;40176;-83
2023/08/04 05:32:45;;;;;;;0.90;0.90;;;;;;;18.47;79.44;98358.59;5140488;27;41765;-83
2023/08/04 05:35:14;;;;;;;0.70;0.70;;;;;;;18.41;79.60;98347.69;5140640;27;42826;-84
2023/08/04 05:37:41;;;;;;;1.10;0.73;;;;;;;18.48;79.61;98359.44;5157312;27;41139;-83
2023/08/04 05:40:10;;;;;;;0.83;0.50;;;;;;;18.59;79.16;98372.59;5157986;27;40144;-84
2023/08/04 05:42:39;;;;;;;0.70;0.70;;;;;;;18.58;79.24;98365.56;5140677;27;40832;-84
2023/08/04 05:45:09;;;;;;;0.73;0.70;;;;;;;18.58;78.88;98377.13;5141075;27;41808;-84
2023/08/04 05:47:36;;;;;;;1.10;0.80;;;;;;;18.52;78.99;98360.81;5158242;27;43535;-83
2023/08/04 05:50:04;;;;;;;1.23;1.00;;;;;;;18.53;79.20;98357.97;5141318;27;40173;-84
2023/08/04 05:52:32;;;;;;;1.10;0.80;;;;;;;18.56;78.98;98367.53;5140637;27;41799;-84
2023/08/04 05:54:59;;;;;;;0.90;0.83;;;;;;;18.62;78.87;98369.63;5140683;27;41596;-84
2023/08/04 05:57:27;;;;;;;1.10;1.00;;;;;;;18.65;78.80;98375.53;5158058;27;40802;-84
2023/08/04 05:59:56;;;;;;;1.17;1.00;;;;;;;18.66;78.80;98362.94;5158093;27;39885;-83
2023/08/04 06:02:24;;;;;;;0.87;0.87;;;;;;;18.73;78.65;98363.97;5140847;27;42114;-84
2023/08/04 06:04:52;;;;;;;0.80;0.80;;;;;;;18.87;78.27;98382.19;5157959;27;42748;-84
2023/08/04 06:07:20;;;;;;;1.17;1.00;;;;;;;18.82;78.60;98370.22;5157637;27;42284;-83
2023/08/04 06:09:47;;;;;;;0.93;0.93;;;;;;;18.85;78.53;98373.44;5139101;27;41307;-83
2023/08/04 06:12:15;;;;;;;0.73;0.73;;;;;;;18.93;78.09;98392.25;5138810;27;40811;-84
2023/08/04 06:14:46;;;;;;;1.87;0.90;;;;;;;18.78;78.13;98366.19;5139493;27;41702;-84
2023/08/04 06:17:15;;;;;;;0.90;0.90;;;;;;;18.90;78.23;98392.59;5139226;27;41374;-84
2023/08/04 06:19:44;;;;;;;2.60;1.00;;;;;;;18.90;78.30;98392.59;5139541;27;39936;-85
2023/08/04 06:22:15;;;;;;;0.97;0.60;;;;;;;18.94;78.27;98393.94;5139071;27;40960;-84
2023/08/04 06:24:42;;;;;;;0.70;0.70;;;;;;;18.91;78.19;98377.34;5153731;27;42690;-84
2023/08/04 06:27:10;;;;;;;1.10;1.00;;;;;;;19.00;77.89;98385.25;5138720;27;41267;-84
2023/08/04 06:29:38;;;;;;;0.90;0.90;;;;;;;19.06;77.73;98382.91;5156518;27;40288;-84
2023/08/04 06:32:07;;;;;;;1.00;0.83;;;;;;;19.15;77.76;98384.66;5138890;27;40985;-84
2023/08/04 06:34:36;;;;;;;0.97;0.97;;;;;;;19.29;77.49;98392.06;5138981;27;41934;-83
2023/08/04 06:37:05;;;;;;;0.63;0.63;;;;;;;19.34;77.10;98398.66;5138872;27;42374;-84
2023/08/04 06:39:32;;;;;;;1.50;1.20;;;;;;;19.42;77.18;98397.81;5139323;27;40885;-84
2023/08/04 06:42:00;;;;;;;0.97;0.97;;;;;;;19.33;76.89;98388.06;5157419;27;42821;-83
2023/08/04 06:44:27;;;;;;;0.80;0.80;;;;;;;19.33;77.17;98396.13;5157675;27;42510;-84
2023/08/04 06:46:55;;;;;;;0.93;0.80;;;;;;;19.24;77.41;98367.56;5157292;27;41520;-84
2023/08/04 06:49:22;;;;;;;1.93;1.17;;;;;;;19.66;76.38;98414.06;5140242;27;41129;-83
2023/08/04 06:51:51;;;;;;;0.83;0.80;;;;;;;19.83;75.82;98395.28;5157060;27;40541;-84
2023/08/04 06:54:19;;;;;;;1.17;1.03;;;;;;;20.19;75.23;98418.16;5157774;27;43785;-82
2023/08/04 06:56:47;;;;;;;0.90;0.80;;;;;;;20.31;74.25;98395.31;5156910;27;41335;-84
2023/08/04 06:59:14;;;;;;;0.67;0.67;;;;;;;20.53;74.44;98403.72;5157471;27;40716;-82
2023/08/04 07:01:42;;;;;;;0.80;0.80;;;;;;;20.78;73.82;98413.44;5175413;27;42588;-83
2023/08/04 07:04:09;;;;;;;0.90;0.90;;;;;;;20.76;73.23;98405.56;5175582;27;42830;-84
2023/08/04 07:06:37;;;;;;;0.80;0.80;;;;;;;20.88;73.08;98414.13;5157013;27;42432;-84
2023/08/04 07:09:14;;;;;;;0.70;0.70;;;;;;;20.98;72.89;98411.25;5155823;27;39949;-84
2023/08/04 07:45:44;;;;;;;0.60;0.60;;;;;;;22.98;64.86;98437.34;5178707;27;43609;-82
2023/08/04 07:48:12;;;;;;;0.47;0.47;;;;;;;23.03;64.89;98408.72;5145664;27;41404;-83
2023/08/04 07:50:41;;;;;;;1.13;0.60;;;;;;;23.29;62.85;98429.88;5145956;27;39916;-82
2023/08/04 07:53:09;;;;;;;0.67;0.60;;;;;;;23.55;62.43;98441.09;5163218;27;40843;-83
2023/08/04 07:55:36;;;;;;;0.50;0.50;;;;;;;23.74;60.63;98442.34;5163234;27;41628;-83
2023/08/04 07:58:04;;;;;;;0.60;0.60;;;;;;;23.87;60.56;98436.25;5181712;27;42119;-83
2023/08/04 08:00:43;;;;;;;0.50;0.50;;;;;;;24.02;59.92;98438.91;5145876;27;40142;-83
2023/08/04 08:07:22;;;;;;;0.60;0.60;;;;;;;23.87;60.04;98423.56;4995390;28;44105;-83
2023/08/04 08:09:50;;;;;;;0.60;0.60;;;;;;;23.97;60.45;98444.91;5071895;28;41351;-83
2023/08/04 08:12:18;;;;;;;0.60;0.60;;;;;;;23.89;60.62;98435.03;5143624;27;39935;-85
2023/08/04 08:14:45;;;;;;;0.77;0.67;;;;;;;23.95;60.31;98463.22;5144254;27;41119;-83
2023/08/04 08:17:13;;;;;;;0.33;0.33;;;;;;;23.78;60.45;98451.75;5161417;27;43836;-83
2023/08/04 08:19:40;;;;;;;0.73;0.60;;;;;;;23.80;59.87;98465.94;5161582;27;41216;-82
2023/08/04 08:22:09;;;;;;;0.50;0.50;;;;;;;23.86;59.50;98459.75;5160979;27;40045;-83
2023/08/04 08:24:37;;;;;;;0.40;0.40;;;;;;;23.87;59.08;98444.38;5161598;27;42897;-84
2023/08/04 08:27:05;;;;;;;0.67;0.50;;;;;;;24.14;57.92;98476.09;5143841;27;43056;-83
2023/08/04 08:29:33;;;;;;;0.67;0.43;;;;;;;24.35;58.38;98480.75;5144033;27;44070;-83
2023/08/04 08:32:00;;;;;;;0.53;0.53;;;;;;;24.57;58.43;98485.13;5144143;27;39734;-82
2023/08/04 08:34:28;;;;;;;0.47;0.43;;;;;;;24.77;58.38;98466.34;5160566;27;41023;-85
2023/08/04 08:36:55;;;;;;;0.50;0.50;;;;;;;25.16;57.73;98478.56;5158052;27;42696;-86
2023/08/04 08:39:23;;;;;;;0.60;0.60;;;;;;;25.30;56.94;98470.31;5140828;27;40928;-86
2023/08/04 08:41:52;;;;;;;0.43;0.43;;;;;;;25.57;56.86;98465.03;5141724;27;40929;-85
2023/08/04 08:44:19;;;;;;;0.67;0.67;;;;;;;25.81;56.03;98483.56;5159004;27;42449;-84
2023/08/04 08:46:47;;;;;;;0.60;0.60;;;;;;;25.91;54.73;98484.00;5158662;27;41696;-84
2023/08/04 08:49:15;;;;;;;0.60;0.60;;;;;;;26.02;53.10;98485.31;5159245;27;42296;-83
2023/08/04 08:51:47;;;;;;;1.13;0.70;;;;;;;26.31;53.12;98482.31;5144246;27;40148;-84
2023/08/04 08:54:16;;;;;;;0.60;0.60;;;;;;;26.68;53.02;98491.75;5158121;27;41851;-85
2023/08/04 08:56:44;;;;;;;0.83;0.70;;;;;;;27.18;52.56;98481.34;5141602;27;44453;-83
2023/08/04 08:59:13;;;;;;;0.60;0.60;;;;;;;27.39;50.41;98461.22;5177626;27;42227;-85
2023/08/04 09:01:41;;;;;;;0.73;0.73;;;;;;;27.07;51.06;98435.78;5141708;27;40065;-84
2023/08/04 09:04:08;;;;;;;0.60;0.60;;;;;;;27.05;51.83;98497.66;5141673;27;42243;-85
2023/08/04 09:06:36;;;;;;;0.67;0.60;;;;;;;26.69;53.90;98455.41;5158846;27;42898;-84
2023/08/04 09:09:05;;;;;;;0.70;0.70;;;;;;;27.03;53.96;98472.56;5157893;27;42586;-83
2023/08/04 09:11:32;;;;;;;0.57;0.57;;;;;;;27.20;53.76;98457.47;5139736;27;40409;-83
2023/08/04 09:14:02;;;;;;;0.60;0.60;;;;;;;27.63;52.60;98470.59;5140611;27;41369;-84
2023/08/04 09:16:34;;;;;;;0.60;0.60;;;;;;;27.62;51.48;98471.63;5140121;27;41711;-85
2023/08/04 09:19:04;;;;;;;0.40;0.40;;;;;;;27.45;50.36;98479.38;5140600;27;41876;-85
2023/08/04 09:21:32;;;;;;;0.50;0.50;;;;;;;27.36;51.84;98478.78;5140433;27;39778;-84
2023/08/04 09:24:01;;;;;;;0.40;0.40;;;;;;;27.12;51.97;98487.59;5157301;27;41768;-85
2023/08/04 09:26:41;;;;;;;0.63;0.63;;;;;;;26.72;51.62;98465.84;5157424;27;41939;-85
2023/08/04 09:29:09;;;;;;;0.47;0.47;;;;;;;26.58;52.12;98487.78;5139651;27;43620;-85
2023/08/04 09:31:39;;;;;;;0.73;0.60;;;;;;;26.42;51.86;98497.16;5157591;27;42016;-85
2023/08/04 09:34:08;;;;;;;0.40;0.40;;;;;;;26.40;51.70;98499.22;5157503;27;41631;-84
2023/08/04 09:36:39;;;;;;;0.40;0.40;;;;;;;26.58;51.92;98502.16;5158717;27;42301;-86
2023/08/04 09:39:09;;;;;;;0.40;0.40;;;;;;;27.03;51.18;98506.03;5157740;27;41278;-86
2023/08/04 09:41:43;;;;;;;0.50;0.50;;;;;;;28.13;49.44;98524.22;5142310;27;40054;-83
2023/08/04 09:44:11;;;;;;;0.50;0.50;;;;;;;28.20;48.89;98516.88;5141798;27;40400;-84
2023/08/04 09:46:47;;;;;;;0.60;0.60;;;;;;;27.76;47.59;98535.84;5140309;27;42263;-84
2023/08/04 09:49:15;;;;;;;0.83;0.57;;;;;;;27.17;49.17;98529.44;5141395;27;41593;-84
2023/08/04 09:51:43;;;;;;;0.93;0.50;;;;;;;26.57;49.63;98510.56;5158311;27;39912;-84
2023/08/04 09:54:11;;;;;;;0.77;0.50;;;;;;;26.01;51.53;98506.16;5141089;27;42141;-86
2023/08/04 09:56:39;;;;;;;0.70;0.53;;;;;;;25.42;53.62;98498.53;5158819;27;41943;-86
2023/08/04 09:59:08;;;;;;;0.50;0.50;;;;;;;24.96;56.06;98473.00;5140559;27;42567;-88
2023/08/04 10:01:37;;;;;;;0.50;0.50;;;;;;;24.67;56.62;98469.38;5141107;27;40420;-83
2023/08/04 10:04:07;;;;;;;0.53;0.50;;;;;;;24.49;58.56;98476.28;5158005;27;40879;-84
2023/08/04 10:06:36;;;;;;;0.40;0.40;;;;;;;24.31;60.30;98463.22;5140420;27;43117;-84
2023/08/04 10:09:04;;;;;;;0.40;0.40;;;;;;;24.50;60.78;98472.53;5156790;27;41359;-84
2023/08/04 10:11:32;;;;;;;0.87;0.33;;;;;;;24.78;60.19;98450.94;5138722;27;40079;-85
2023/08/04 10:14:00;;;;;;;0.53;0.50;;;;;;;24.94;61.13;98447.97;5139016;27;41111;-85
2023/08/04 10:16:32;;;;;;;0.60;0.60;;;;;;;24.90;59.27;98474.56;5139104;27;43073;-84
2023/08/04 10:19:03;;;;;;;0.40;0.40;;;;;;;24.84;59.84;98477.25;5156772;27;41488;-84
2023/08/04 10:21:34;;;;;;;0.53;0.53;;;;;;;24.68;60.34;98462.09;5139658;27;39757;-84
2023/08/04 10:24:04;;;;;;;0.50;0.50;;;;;;;24.56;60.08;98477.19;5139582;27;41286;-85
2023/08/04 10:26:32;;;;;;;0.60;0.57;;;;;;;24.40;59.52;98478.28;5139173;27;42092;-84
2023/08/04 10:29:02;;;;;;;0.37;0.37;;;;;;;24.19;60.24;98448.47;5156120;27;41688;-84
2023/08/04 10:31:51;;;;;;;0.53;0.53;;;;;;;24.24;60.65;98459.59;5139289;27;41220;-85
2023/08/04 10:34:20;;;;;;;0.40;0.40;;;;;;;24.28;60.85;98469.84;5138988;27;41947;-84
2023/08/04 10:37:09;;;;;;;0.50;0.50;;;;;;;24.09;61.11;98437.13;5139520;27;41710;-85
2023/08/04 10:39:38;;;;;;;0.57;0.57;;;;;;;24.13;61.70;98450.06;5156269;27;41236;-83
2023/08/04 10:42:14;;;;;;;0.50;0.50;;;;;;;24.14;61.53;98457.16;5157387;27;39807;-84
2023/08/04 10:44:50;;;;;;;0.57;0.57;;;;;;;24.22;61.80;98443.56;5139753;27;40573;-85
2023/08/04 10:47:30;;;;;;;0.40;0.40;;;;;;;24.42;61.76;98461.84;5154528;27;42789;-85
2023/08/04 10:49:58;;;;;;;0.43;0.40;;;;;;;24.46;62.54;98445.03;5140068;27;41258;-85
2023/08/04 10:52:29;;;;;;;0.60;0.60;;;;;;;24.59;61.74;98445.16;5140336;27;40074;-85
2023/08/04 10:54:56;;;;;;;0.50;0.40;;;;;;;24.73;60.72;98461.53;5139661;27;40319;-85
2023/08/04 10:57:27;;;;;;;0.40;0.40;;;;;;;24.88;60.12;98470.38;5139311;27;43060;-88
2023/08/04 10:59:55;;;;;;;0.50;0.50;;;;;;;25.05;60.00;98467.22;5156594;27;42211;-85
2023/08/04 11:02:24;;;;;;;0.43;0.43;;;;;;;25.38;60.32;98472.84;5157296;27;41876;-86
2023/08/04 11:04:53;;;;;;;0.40;0.40;;;;;;;25.67;58.18;98481.81;5140047;27;41970;-85
2023/08/04 11:07:23;;;;;;;0.57;0.50;;;;;;;26.05;57.82;98488.44;5139529;27;42904;-84
2023/08/04 11:09:54;;;;;;;0.60;0.50;;;;;;;26.38;56.87;98485.84;5138092;27;41376;-84
2023/08/04 11:12:22;;;;;;;0.30;0.30;;;;;;;26.72;55.77;98498.44;5138432;27;39908;-84
2023/08/04 11:14:50;;;;;;;0.40;0.40;;;;;;;26.99;54.96;98498.47;5155637;27;40747;-84
2023/08/04 11:17:19;;;;;;;0.43;0.43;;;;;;;27.48;54.26;98515.16;5138775;27;41785;-84
2023/08/04 11:19:49;;;;;;;0.43;0.43;;;;;;;28.16;51.86;98515.63;5155651;27;43285;-85
2023/08/04 11:22:18;;;;;;;0.60;0.60;;;;;;;29.63;48.81;98541.66;5138488;27;39584;-83
2023/08/04 11:24:45;;;;;;;0.50;0.50;;;;;;;30.43;46.68;98531.47;5173042;27;41758;-84
2023/08/04 11:27:16;;;;;;;0.43;0.43;;;;;;;30.35;45.27;98546.31;5138190;27;43183;-84
2023/08/04 11:29:44;;;;;;;0.40;0.40;;;;;;;30.00;46.67;98537.09;5138003;27;42420;-84
2023/08/04 11:32:12;;;;;;;0.40;0.40;;;;;;;29.93;46.94;98542.56;5155257;27;40484;-85
2023/08/04 11:34:41;;;;;;;0.40;0.40;;;;;;;29.65;46.39;98529.47;5138287;27;40998;-85
2023/08/04 11:37:09;;;;;;;0.30;0.30;;;;;;;29.41;46.88;98532.25;5155193;27;42731;-84
2023/08/04 11:39:38;;;;;;;0.50;0.50;;;;;;;29.14;47.18;98540.63;5138148;27;42508;-84
2023/08/04 11:42:10;;;;;;;0.40;0.40;;;;;;;28.78;47.60;98544.03;5139456;27;39961;-85
2023/08/04 11:44:40;;;;;;;0.40;0.40;;;;;;;28.65;48.63;98533.19;5154197;27;42605;-85
2023/08/04 11:47:09;;;;;;;0.30;0.30;;;;;;;28.73;48.01;98540.25;5139167;27;41796;-85
2023/08/04 11:49:37;;;;;;;0.30;0.30;;;;;;;29.20;48.82;98544.34;5138999;27;41202;-84
2023/08/04 11:52:08;;;;;;;0.43;0.43;;;;;;;29.55;46.75;98556.41;5156291;27;40154;-86
2023/08/04 11:54:36;;;;;;;0.40;0.40;;;;;;;29.47;46.26;98561.34;5139176;27;43688;-85
2023/08/04 11:57:04;;;;;;;0.30;0.30;;;;;;;29.35;46.63;98576.75;5139438;27;43520;-86
2023/08/04 11:59:32;;;;;;;0.33;0.33;;;;;;;29.08;47.00;98554.28;5139307;27;41443;-86
2023/08/04 12:02:09;;;;;;;0.30;0.30;;;;;;;29.05;47.33;98554.75;5139774;27;39702;-87
2023/08/04 12:04:37;;;;;;;1.27;0.43;;;;;;;29.02;47.16;98558.75;5139465;27;41101;-85
2023/08/04 12:07:06;;;;;;;0.40;0.40;;;;;;;28.90;46.75;98574.16;5175060;27;42715;-85
2023/08/04 12:09:34;;;;;;;0.30;0.30;;;;;;;28.59;47.18;98540.34;5140642;27;41275;-86
2023/08/04 12:12:03;;;;;;;0.47;0.47;;;;;;;28.52;46.42;98577.69;5143931;27;39536;-84
2023/08/04 12:14:30;;;;;;;0.40;0.40;;;;;;;28.35;46.96;98562.88;5142095;27;40724;-85
2023/08/04 12:17:00;;;;;;;0.27;0.27;;;;;;;28.95;45.79;98575.16;5158913;27;42556;-85
2023/08/04 12:19:31;;;;;;;0.30;0.30;;;;;;;28.89;44.94;98569.75;5158962;27;41186;-86